sensor_id;sensor_type;location;lat;lon;timestamp;pressure;altitude;pressure_sealevel;temperature;humidity
75312;BME280;63906;55.686;37.532;2023-12-20T00:02:29;97784.38;;;4.02;100.00
75312;BME280;63906;55.686;37.532;2023-12-20T00:07:29;97742.16;;;3.65;100.00
75312;BME280;63906;55.686;37.532;2023-12-20T00:12:30;97771.50;;;3.87;100.00
75312;BME280;63906;55.686;37.532;2023-12-20T00:17:30;97776.34;;;3.97;100.00
75312;BME280;63906;55.686;37.532;2023-12-20T00:22:31;97764.53;;;3.94;100.00
75312;BME280;63906;55.686;37.532;2023-12-20T00:27:31;97768.03;;;4.15;100.00
75312;BME280;63906;55.686;37.532;2023-12-20T00:32:32;97784.94;;;4.32;100.00
75312;BME280;63906;55.686;37.532;2023-12-20T00:37:32;97786.94;;;4.37;100.00
75312;BME280;63906;55.686;37.532;2023-12-20T00:42:33;97800.34;;;4.33;100.00
75312;BME280;63906;55.686;37.532;2023-12-20T00:47:33;97813.00;;;4.37;100.00
75312;BME280;63906;55.686;37.532;2023-12-20T00:52:34;97768.00;;;4.08;100.00
75312;BME280;63906;55.686;37.532;2023-12-20T00:57:34;97766.44;;;4.20;100.00
75312;BME280;63906;55.686;37.532;2023-12-20T01:02:35;97762.44;;;4.18;100.00
75312;BME280;63906;55.686;37.532;2023-12-20T01:07:35;97794.13;;;4.35;100.00
75312;BME280;63906;55.686;37.532;2023-12-20T01:12:36;97792.94;;;4.30;100.00
75312;BME280;63906;55.686;37.532;2023-12-20T01:17:37;97720.31;;;4.01;100.00
75312;BME280;63906;55.686;37.532;2023-12-20T01:22:37;97765.81;;;4.12;100.00
75312;BME280;63906;55.686;37.532;2023-12-20T01:27:38;97780.91;;;4.23;100.00
75312;BME280;63906;55.686;37.532;2023-12-20T01:32:38;97737.13;;;3.98;100.00
75312;BME280;63906;55.686;37.532;2023-12-20T01:37:39;97723.88;;;3.87;100.00
75312;BME280;63906;55.686;37.532;2023-12-20T01:42:39;97774.66;;;4.17;100.00
75312;BME280;63906;55.686;37.532;2023-12-20T01:47:40;97763.25;;;4.18;100.00
75312;BME280;63906;55.686;37.532;2023-12-20T01:52:42;97782.69;;;4.22;100.00
75312;BME280;63906;55.686;37.532;2023-12-20T01:57:43;97736.75;;;4.08;100.00
75312;BME280;63906;55.686;37.532;2023-12-20T02:02:45;97753.19;;;4.15;100.00
75312;BME280;63906;55.686;37.532;2023-12-20T02:07:46;97740.00;;;4.10;100.00
75312;BME280;63906;55.686;37.532;2023-12-20T02:12:46;97725.53;;;4.01;100.00
75312;BME280;63906;55.686;37.532;2023-12-20T02:17:47;97732.34;;;4.09;100.00
75312;BME280;63906;55.686;37.532;2023-12-20T02:22:48;97725.94;;;4.04;100.00
75312;BME280;63906;55.686;37.532;2023-12-20T02:27:49;97727.53;;;3.99;100.00
75312;BME280;63906;55.686;37.532;2023-12-20T02:32:50;97711.69;;;3.94;100.00
75312;BME280;63906;55.686;37.532;2023-12-20T02:37:51;97720.34;;;4.08;100.00
75312;BME280;63906;55.686;37.532;2023-12-20T02:42:52;97672.53;;;3.67;100.00
75312;BME280;63906;55.686;37.532;2023-12-20T02:47:52;97675.34;;;3.72;100.00
75312;BME280;63906;55.686;37.532;2023-12-20T02:52:53;97718.66;;;3.87;100.00
75312;BME280;63906;55.686;37.532;2023-12-20T02:57:53;97719.88;;;3.91;100.00
75312;BME280;63906;55.686;37.532;2023-12-20T03:02:53;97694.97;;;3.68;100.00
75312;BME280;63906;55.686;37.532;2023-12-20T03:07:54;97653.75;;;3.78;100.00
75312;BME280;63906;55.686;37.532;2023-12-20T03:12:54;97702.72;;;4.10;100.00
75312;BME280;63906;55.686;37.532;2023-12-20T03:17:55;97670.09;;;3.59;100.00
75312;BME280;63906;55.686;37.532;2023-12-20T03:22:55;97718.13;;;4.04;100.00
75312;BME280;63906;55.686;37.532;2023-12-20T03:27:56;97698.41;;;3.75;100.00
75312;BME280;63906;55.686;37.532;2023-12-20T03:32:56;97722.28;;;3.86;100.00
75312;BME280;63906;55.686;37.532;2023-12-20T03:37:56;97716.31;;;3.57;100.00
75312;BME280;63906;55.686;37.532;2023-12-20T03:42:58;97716.97;;;3.72;100.00
75312;BME280;63906;55.686;37.532;2023-12-20T03:47:58;97739.28;;;3.88;100.00
75312;BME280;63906;55.686;37.532;2023-12-20T03:52:59;97732.28;;;3.89;100.00
75312;BME280;63906;55.686;37.532;2023-12-20T03:57:59;97720.59;;;3.78;100.00
75312;BME280;63906;55.686;37.532;2023-12-20T04:02:59;97723.69;;;3.95;100.00
75312;BME280;63906;55.686;37.532;2023-12-20T04:08:01;97726.28;;;3.95;100.00
75312;BME280;63906;55.686;37.532;2023-12-20T04:13:02;97688.34;;;3.72;100.00
75312;BME280;63906;55.686;37.532;2023-12-20T04:18:02;97678.16;;;3.71;100.00
75312;BME280;63906;55.686;37.532;2023-12-20T04:23:03;97736.34;;;3.98;100.00
75312;BME280;63906;55.686;37.532;2023-12-20T04:28:04;97705.19;;;3.76;100.00
75312;BME280;63906;55.686;37.532;2023-12-20T04:33:04;97696.56;;;3.69;100.00
75312;BME280;63906;55.686;37.532;2023-12-20T04:38:05;97771.59;;;4.07;100.00
75312;BME280;63906;55.686;37.532;2023-12-20T04:43:05;97759.56;;;3.99;100.00
75312;BME280;63906;55.686;37.532;2023-12-20T04:48:06;97678.00;;;3.38;100.00
75312;BME280;63906;55.686;37.532;2023-12-20T04:53:06;97749.47;;;3.83;100.00
75312;BME280;63906;55.686;37.532;2023-12-20T04:58:07;97672.78;;;3.38;100.00
75312;BME280;63906;55.686;37.532;2023-12-20T05:03:08;97715.56;;;3.70;100.00
75312;BME280;63906;55.686;37.532;2023-12-20T05:08:09;97744.69;;;3.87;100.00
75312;BME280;63906;55.686;37.532;2023-12-20T05:13:10;97713.97;;;3.69;100.00
75312;BME280;63906;55.686;37.532;2023-12-20T05:18:11;97757.69;;;3.87;100.00
75312;BME280;63906;55.686;37.532;2023-12-20T05:23:11;97741.44;;;3.85;100.00
75312;BME280;63906;55.686;37.532;2023-12-20T05:28:13;97715.31;;;3.58;100.00
75312;BME280;63906;55.686;37.532;2023-12-20T05:33:13;97753.94;;;3.96;100.00
75312;BME280;63906;55.686;37.532;2023-12-20T05:38:14;97740.06;;;3.82;100.00
75312;BME280;63906;55.686;37.532;2023-12-20T05:43:14;97749.13;;;3.93;100.00
75312;BME280;63906;55.686;37.532;2023-12-20T05:48:15;97774.75;;;3.96;100.00
75312;BME280;63906;55.686;37.532;2023-12-20T05:53:15;97739.00;;;3.70;100.00
75312;BME280;63906;55.686;37.532;2023-12-20T05:58:16;97737.41;;;3.75;100.00
75312;BME280;63906;55.686;37.532;2023-12-20T06:03:16;97716.56;;;3.69;100.00
75312;BME280;63906;55.686;37.532;2023-12-20T06:08:17;97746.44;;;3.73;100.00
75312;BME280;63906;55.686;37.532;2023-12-20T06:13:17;97792.66;;;4.12;100.00
75312;BME280;63906;55.686;37.532;2023-12-20T06:18:18;97804.84;;;4.05;100.00
75312;BME280;63906;55.686;37.532;2023-12-20T06:23:18;97790.44;;;4.09;100.00
75312;BME280;63906;55.686;37.532;2023-12-20T06:28:18;97803.91;;;4.19;100.00
75312;BME280;63906;55.686;37.532;2023-12-20T06:33:19;97803.25;;;4.04;100.00
75312;BME280;63906;55.686;37.532;2023-12-20T06:38:21;97792.66;;;4.12;100.00
75312;BME280;63906;55.686;37.532;2023-12-20T06:43:22;97803.94;;;4.32;100.00
75312;BME280;63906;55.686;37.532;2023-12-20T06:48:22;97810.34;;;4.23;100.00
75312;BME280;63906;55.686;37.532;2023-12-20T06:53:23;97764.41;;;4.09;100.00
75312;BME280;63906;55.686;37.532;2023-12-20T06:58:23;97796.13;;;4.26;100.00
75312;BME280;63906;55.686;37.532;2023-12-20T07:03:24;97739.09;;;3.90;100.00
75312;BME280;63906;55.686;37.532;2023-12-20T07:08:24;97782.13;;;4.33;100.00
75312;BME280;63906;55.686;37.532;2023-12-20T07:13:25;97787.53;;;4.32;100.00
75312;BME280;63906;55.686;37.532;2023-12-20T07:18:25;97790.16;;;4.39;100.00
75312;BME280;63906;55.686;37.532;2023-12-20T07:23:26;97801.81;;;4.43;100.00
75312;BME280;63906;55.686;37.532;2023-12-20T07:28:26;97809.22;;;4.46;100.00
75312;BME280;63906;55.686;37.532;2023-12-20T07:33:27;97758.84;;;4.19;100.00
75312;BME280;63906;55.686;37.532;2023-12-20T07:38:27;97804.19;;;4.38;100.00
75312;BME280;63906;55.686;37.532;2023-12-20T07:43:28;97842.06;;;4.47;99.76
75312;BME280;63906;55.686;37.532;2023-12-20T07:48:28;97814.19;;;4.41;100.00
75312;BME280;63906;55.686;37.532;2023-12-20T07:53:29;97782.00;;;4.07;100.00
75312;BME280;63906;55.686;37.532;2023-12-20T07:58:29;97839.28;;;4.48;100.00
75312;BME280;63906;55.686;37.532;2023-12-20T08:03:31;97855.19;;;4.60;100.00
75312;BME280;63906;55.686;37.532;2023-12-20T08:08:31;97838.31;;;4.56;100.00
75312;BME280;63906;55.686;37.532;2023-12-20T08:13:32;97823.25;;;4.51;99.20
75312;BME280;63906;55.686;37.532;2023-12-20T08:18:32;97845.94;;;4.57;99.13
75312;BME280;63906;55.686;37.532;2023-12-20T08:23:34;97823.50;;;4.63;99.39
75312;BME280;63906;55.686;37.532;2023-12-20T08:28:36;97822.28;;;4.66;99.52
75312;BME280;63906;55.686;37.532;2023-12-20T08:33:37;97812.50;;;4.68;100.00
75312;BME280;63906;55.686;37.532;2023-12-20T08:38:37;97830.56;;;4.82;100.00
75312;BME280;63906;55.686;37.532;2023-12-20T08:43:38;97844.59;;;4.75;100.00
75312;BME280;63906;55.686;37.532;2023-12-20T08:48:40;97841.97;;;4.68;99.30
75312;BME280;63906;55.686;37.532;2023-12-20T08:53:40;97760.81;;;4.10;100.00
75312;BME280;63906;55.686;37.532;2023-12-20T08:58:41;97815.03;;;4.48;100.00
75312;BME280;63906;55.686;37.532;2023-12-20T09:03:42;97775.72;;;4.29;100.00
75312;BME280;63906;55.686;37.532;2023-12-20T09:08:43;97790.16;;;4.39;100.00
75312;BME280;63906;55.686;37.532;2023-12-20T09:13:43;97815.88;;;4.55;100.00
75312;BME280;63906;55.686;37.532;2023-12-20T09:18:44;97807.00;;;4.43;100.00
75312;BME280;63906;55.686;37.532;2023-12-20T09:23:45;97817.06;;;4.59;100.00
75312;BME280;63906;55.686;37.532;2023-12-20T09:28:45;97764.13;;;4.45;100.00
75312;BME280;63906;55.686;37.532;2023-12-20T09:33:46;97764.53;;;4.42;100.00
75312;BME280;63906;55.686;37.532;2023-12-20T09:38:46;97785.00;;;4.65;100.00
75312;BME280;63906;55.686;37.532;2023-12-20T09:43:48;97740.09;;;4.43;100.00
75312;BME280;63906;55.686;37.532;2023-12-20T09:48:49;97786.03;;;4.77;100.00
75312;BME280;63906;55.686;37.532;2023-12-20T09:53:53;97788.25;;;4.67;100.00
75312;BME280;63906;55.686;37.532;2023-12-20T09:58:54;97808.72;;;4.90;100.00
75312;BME280;63906;55.686;37.532;2023-12-20T10:03:56;97808.31;;;4.73;100.00
75312;BME280;63906;55.686;37.532;2023-12-20T10:08:56;97815.13;;;4.81;99.59
75312;BME280;63906;55.686;37.532;2023-12-20T10:14:01;97805.09;;;4.78;99.33
75312;BME280;63906;55.686;37.532;2023-12-20T10:19:01;97748.47;;;4.32;99.71
75312;BME280;63906;55.686;37.532;2023-12-20T10:24:02;97811.50;;;4.75;100.00
75312;BME280;63906;55.686;37.532;2023-12-20T10:29:04;97767.72;;;4.38;100.00
75312;BME280;63906;55.686;37.532;2023-12-20T10:34:05;97827.50;;;4.66;98.74
75312;BME280;63906;55.686;37.532;2023-12-20T10:39:08;97829.38;;;4.78;98.87
75312;BME280;63906;55.686;37.532;2023-12-20T10:44:12;97811.84;;;4.59;98.73
75312;BME280;63906;55.686;37.532;2023-12-20T10:49:15;97830.75;;;4.74;100.00
75312;BME280;63906;55.686;37.532;2023-12-20T10:54:16;97791.75;;;4.40;100.00
75312;BME280;63906;55.686;37.532;2023-12-20T10:59:19;97819.47;;;4.54;100.00
75312;BME280;63906;55.686;37.532;2023-12-20T11:04:25;97824.31;;;4.64;100.00
75312;BME280;63906;55.686;37.532;2023-12-20T11:09:36;97820.66;;;4.58;100.00
75312;BME280;63906;55.686;37.532;2023-12-20T11:14:46;97825.91;;;4.71;100.00
75312;BME280;63906;55.686;37.532;2023-12-20T11:25:05;97793.19;;;4.42;100.00
75312;BME280;63906;55.686;37.532;2023-12-20T11:30:09;97787.78;;;4.44;100.00
75312;BME280;63906;55.686;37.532;2023-12-20T11:40:15;97841.13;;;4.54;100.00
75312;BME280;63906;55.686;37.532;2023-12-20T11:45:18;97819.03;;;4.44;100.00
75312;BME280;63906;55.686;37.532;2023-12-20T11:50:25;97780.03;;;4.16;100.00
75312;BME280;63906;55.686;37.532;2023-12-20T11:55:26;97822.63;;;4.43;100.00
75312;BME280;63906;55.686;37.532;2023-12-20T12:00:27;97844.50;;;4.48;100.00
75312;BME280;63906;55.686;37.532;2023-12-20T12:05:27;97818.00;;;4.38;100.00
75312;BME280;63906;55.686;37.532;2023-12-20T12:10:31;97838.03;;;4.38;100.00
75312;BME280;63906;55.686;37.532;2023-12-20T12:15:46;97838.03;;;4.38;100.00
75312;BME280;63906;55.686;37.532;2023-12-20T12:20:48;97820.97;;;4.28;100.00
75312;BME280;63906;55.686;37.532;2023-12-20T12:25:48;97777.53;;;3.88;100.00
75312;BME280;63906;55.686;37.532;2023-12-20T12:30:59;97769.72;;;3.88;100.00
75312;BME280;63906;55.686;37.532;2023-12-20T12:36:00;97808.31;;;3.84;100.00
75312;BME280;63906;55.686;37.532;2023-12-20T12:41:01;97853.22;;;4.27;100.00
75312;BME280;63906;55.686;37.532;2023-12-20T12:46:02;97797.97;;;3.97;100.00
75312;BME280;63906;55.686;37.532;2023-12-20T12:51:02;97795.19;;;3.99;100.00
75312;BME280;63906;55.686;37.532;2023-12-20T12:56:03;97877.47;;;4.35;100.00
75312;BME280;63906;55.686;37.532;2023-12-20T13:01:04;97860.63;;;4.24;100.00
75312;BME280;63906;55.686;37.532;2023-12-20T13:06:05;97871.84;;;4.24;100.00
75312;BME280;63906;55.686;37.532;2023-12-20T13:11:15;97887.13;;;4.41;100.00
75312;BME280;63906;55.686;37.532;2023-12-20T13:16:15;97883.09;;;4.31;100.00
75312;BME280;63906;55.686;37.532;2023-12-20T13:21:16;97881.09;;;4.33;100.00
75312;BME280;63906;55.686;37.532;2023-12-20T13:26:17;97869.72;;;4.07;100.00
75312;BME280;63906;55.686;37.532;2023-12-20T13:31:17;97878.78;;;4.11;100.00
75312;BME280;63906;55.686;37.532;2023-12-20T13:36:18;97875.38;;;4.10;100.00
75312;BME280;63906;55.686;37.532;2023-12-20T13:41:19;97884.50;;;3.99;100.00
75312;BME280;63906;55.686;37.532;2023-12-20T13:46:20;97890.00;;;4.11;100.00
75312;BME280;63906;55.686;37.532;2023-12-20T13:51:20;97830.00;;;3.63;100.00
75312;BME280;63906;55.686;37.532;2023-12-20T13:56:23;97846.28;;;3.72;100.00
75312;BME280;63906;55.686;37.532;2023-12-20T14:01:24;97883.50;;;3.72;100.00
75312;BME280;63906;55.686;37.532;2023-12-20T14:06:25;97831.19;;;3.33;100.00
75312;BME280;63906;55.686;37.532;2023-12-20T14:11:26;97895.25;;;3.90;100.00
75312;BME280;63906;55.686;37.532;2023-12-20T14:16:29;97844.53;;;3.51;100.00
75312;BME280;63906;55.686;37.532;2023-12-20T14:21:29;97881.13;;;3.77;100.00
75312;BME280;63906;55.686;37.532;2023-12-20T14:26:30;97884.75;;;3.76;100.00
75312;BME280;63906;55.686;37.532;2023-12-20T14:31:32;97894.34;;;3.76;100.00
75312;BME280;63906;55.686;37.532;2023-12-20T14:36:32;97906.41;;;3.84;100.00
75312;BME280;63906;55.686;37.532;2023-12-20T14:41:32;97906.91;;;3.94;100.00
75312;BME280;63906;55.686;37.532;2023-12-20T14:46:33;97907.66;;;3.88;100.00
75312;BME280;63906;55.686;37.532;2023-12-20T14:51:33;97873.78;;;3.81;100.00
75312;BME280;63906;55.686;37.532;2023-12-20T14:56:34;97904.53;;;3.99;100.00
75312;BME280;63906;55.686;37.532;2023-12-20T15:01:35;97923.00;;;4.04;100.00
75312;BME280;63906;55.686;37.532;2023-12-20T15:06:36;97864.69;;;3.70;100.00
75312;BME280;63906;55.686;37.532;2023-12-20T15:11:37;97914.50;;;3.95;100.00
75312;BME280;63906;55.686;37.532;2023-12-20T15:16:37;97880.38;;;3.84;100.00
75312;BME280;63906;55.686;37.532;2023-12-20T15:21:38;97874.34;;;3.76;100.00
75312;BME280;63906;55.686;37.532;2023-12-20T15:26:43;97925.06;;;4.15;100.00
75312;BME280;63906;55.686;37.532;2023-12-20T15:31:45;97871.63;;;3.63;100.00
75312;BME280;63906;55.686;37.532;2023-12-20T15:36:46;97850.63;;;3.65;100.00
75312;BME280;63906;55.686;37.532;2023-12-20T15:41:47;97881.91;;;3.71;100.00
75312;BME280;63906;55.686;37.532;2023-12-20T15:46:47;97931.56;;;3.98;100.00
75312;BME280;63906;55.686;37.532;2023-12-20T15:51:48;97944.22;;;4.08;100.00
75312;BME280;63906;55.686;37.532;2023-12-20T15:56:48;97951.00;;;4.02;100.00
75312;BME280;63906;55.686;37.532;2023-12-20T16:01:49;97986.69;;;4.08;100.00
75312;BME280;63906;55.686;37.532;2023-12-20T16:06:49;97961.91;;;3.91;100.00
75312;BME280;63906;55.686;37.532;2023-12-20T16:11:50;97886.88;;;3.45;100.00
75312;BME280;63906;55.686;37.532;2023-12-20T16:16:50;97969.78;;;3.97;100.00
75312;BME280;63906;55.686;37.532;2023-12-20T16:21:50;97958.22;;;3.78;100.00
75312;BME280;63906;55.686;37.532;2023-12-20T16:26:51;97972.84;;;3.80;100.00
75312;BME280;63906;55.686;37.532;2023-12-20T16:31:51;97980.03;;;3.77;100.00
75312;BME280;63906;55.686;37.532;2023-12-20T16:36:53;97929.44;;;3.59;100.00
75312;BME280;63906;55.686;37.532;2023-12-20T16:41:54;97967.00;;;3.77;100.00
75312;BME280;63906;55.686;37.532;2023-12-20T16:46:55;97902.50;;;3.45;100.00
75312;BME280;63906;55.686;37.532;2023-12-20T16:51:55;97969.06;;;3.82;100.00
75312;BME280;63906;55.686;37.532;2023-12-20T16:56:56;97979.66;;;3.81;100.00
75312;BME280;63906;55.686;37.532;2023-12-20T17:01:56;97972.06;;;3.79;99.18
75312;BME280;63906;55.686;37.532;2023-12-20T17:06:57;97972.41;;;3.76;100.00
75312;BME280;63906;55.686;37.532;2023-12-20T17:11:57;97988.47;;;3.80;99.01
75312;BME280;63906;55.686;37.532;2023-12-20T17:16:58;97993.69;;;3.80;98.46
75312;BME280;63906;55.686;37.532;2023-12-20T17:21:58;97977.31;;;3.64;95.88
75312;BME280;63906;55.686;37.532;2023-12-20T17:26:59;97978.56;;;3.68;99.07
75312;BME280;63906;55.686;37.532;2023-12-20T17:31:59;97994.66;;;3.78;98.90
75312;BME280;63906;55.686;37.532;2023-12-20T17:37:00;98002.53;;;3.85;99.94
75312;BME280;63906;55.686;37.532;2023-12-20T17:42:00;97993.03;;;3.77;100.00
75312;BME280;63906;55.686;37.532;2023-12-20T17:47:02;97990.81;;;3.74;100.00
75312;BME280;63906;55.686;37.532;2023-12-20T17:52:02;97965.91;;;3.65;100.00
75312;BME280;63906;55.686;37.532;2023-12-20T17:57:06;97958.84;;;3.59;100.00
75312;BME280;63906;55.686;37.532;2023-12-20T18:02:06;97985.63;;;3.74;100.00
75312;BME280;63906;55.686;37.532;2023-12-20T18:07:07;97948.81;;;3.35;99.54
75312;BME280;63906;55.686;37.532;2023-12-20T18:12:07;97970.38;;;3.71;98.66
75312;BME280;63906;55.686;37.532;2023-12-20T18:17:08;97961.78;;;3.49;100.00
75312;BME280;63906;55.686;37.532;2023-12-20T18:22:09;98008.22;;;3.74;100.00
75312;BME280;63906;55.686;37.532;2023-12-20T18:27:10;97978.75;;;3.67;100.00
75312;BME280;63906;55.686;37.532;2023-12-20T18:32:10;97971.16;;;3.72;100.00
75312;BME280;63906;55.686;37.532;2023-12-20T18:37:11;97944.56;;;3.48;100.00
75312;BME280;63906;55.686;37.532;2023-12-20T18:42:12;97947.50;;;3.45;100.00
75312;BME280;63906;55.686;37.532;2023-12-20T18:47:12;97934.69;;;3.44;99.77
75312;BME280;63906;55.686;37.532;2023-12-20T18:52:13;97975.44;;;3.58;100.00
75312;BME280;63906;55.686;37.532;2023-12-20T18:57:13;97924.66;;;3.19;100.00
75312;BME280;63906;55.686;37.532;2023-12-20T19:02:14;97985.91;;;3.65;100.00
75312;BME280;63906;55.686;37.532;2023-12-20T19:07:14;97976.63;;;3.56;100.00
75312;BME280;63906;55.686;37.532;2023-12-20T19:12:15;97948.44;;;3.38;100.00
75312;BME280;63906;55.686;37.532;2023-12-20T19:17:17;97981.09;;;3.62;100.00
75312;BME280;63906;55.686;37.532;2023-12-20T19:22:17;97904.88;;;3.04;100.00
75312;BME280;63906;55.686;37.532;2023-12-20T19:27:17;97987.84;;;3.56;99.88
75312;BME280;63906;55.686;37.532;2023-12-20T19:32:18;97983.88;;;3.60;97.92
75312;BME280;63906;55.686;37.532;2023-12-20T19:37:18;97983.88;;;3.60;99.38
75312;BME280;63906;55.686;37.532;2023-12-20T19:42:19;97923.66;;;3.20;100.00
75312;BME280;63906;55.686;37.532;2023-12-20T19:47:19;97985.00;;;3.51;100.00
75312;BME280;63906;55.686;37.532;2023-12-20T19:52:20;97971.38;;;3.49;100.00
75312;BME280;63906;55.686;37.532;2023-12-20T19:57:20;97956.50;;;3.43;100.00
75312;BME280;63906;55.686;37.532;2023-12-20T20:02:24;97881.19;;;2.92;100.00
75312;BME280;63906;55.686;37.532;2023-12-20T20:07:24;97974.78;;;3.49;100.00
75312;BME280;63906;55.686;37.532;2023-12-20T20:12:25;97983.38;;;3.50;100.00
75312;BME280;63906;55.686;37.532;2023-12-20T20:17:26;97954.66;;;3.22;100.00
75312;BME280;63906;55.686;37.532;2023-12-20T20:22:27;97946.81;;;3.15;100.00
75312;BME280;63906;55.686;37.532;2023-12-20T20:27:27;97958.06;;;3.22;100.00
75312;BME280;63906;55.686;37.532;2023-12-20T20:32:28;97947.56;;;3.31;100.00
75312;BME280;63906;55.686;37.532;2023-12-20T20:37:28;97958.00;;;3.16;100.00
75312;BME280;63906;55.686;37.532;2023-12-20T20:42:29;97937.53;;;3.06;100.00
75312;BME280;63906;55.686;37.532;2023-12-20T20:47:29;97939.75;;;3.09;100.00
75312;BME280;63906;55.686;37.532;2023-12-20T20:52:30;97937.34;;;3.08;100.00
75312;BME280;63906;55.686;37.532;2023-12-20T20:57:30;97932.72;;;3.24;100.00
75312;BME280;63906;55.686;37.532;2023-12-20T21:02:30;97943.97;;;3.53;100.00
75312;BME280;63906;55.686;37.532;2023-12-20T21:07:31;97942.13;;;3.47;100.00
75312;BME280;63906;55.686;37.532;2023-12-20T21:12:33;97918.34;;;3.29;100.00
75312;BME280;63906;55.686;37.532;2023-12-20T21:17:33;97898.44;;;3.36;100.00
75312;BME280;63906;55.686;37.532;2023-12-20T21:22:34;97866.22;;;3.37;100.00
75312;BME280;63906;55.686;37.532;2023-12-20T21:27:35;97889.00;;;3.56;100.00
75312;BME280;63906;55.686;37.532;2023-12-20T21:32:37;97844.84;;;3.41;100.00
75312;BME280;63906;55.686;37.532;2023-12-20T21:37:38;97850.59;;;3.58;100.00
75312;BME280;63906;55.686;37.532;2023-12-20T21:42:38;97818.63;;;3.36;100.00
75312;BME280;63906;55.686;37.532;2023-12-20T21:47:39;97822.72;;;3.24;100.00
75312;BME280;63906;55.686;37.532;2023-12-20T21:52:39;97826.00;;;2.90;98.73
75312;BME280;63906;55.686;37.532;2023-12-20T21:57:39;97808.44;;;2.92;99.53
75312;BME280;63906;55.686;37.532;2023-12-20T22:02:40;97768.53;;;3.00;100.00
75312;BME280;63906;55.686;37.532;2023-12-20T22:07:41;97760.38;;;3.09;100.00
75312;BME280;63906;55.686;37.532;2023-12-20T22:12:43;97757.66;;;3.17;100.00
75312;BME280;63906;55.686;37.532;2023-12-20T22:17:44;97752.97;;;3.06;100.00
75312;BME280;63906;55.686;37.532;2023-12-20T22:22:44;97748.59;;;2.85;100.00
75312;BME280;63906;55.686;37.532;2023-12-20T22:27:45;97753.72;;;3.00;100.00
75312;BME280;63906;55.686;37.532;2023-12-20T22:32:45;97741.34;;;3.02;100.00
75312;BME280;63906;55.686;37.532;2023-12-20T22:37:46;97694.38;;;3.04;100.00
75312;BME280;63906;55.686;37.532;2023-12-20T22:42:46;97650.59;;;2.51;100.00
75312;BME280;63906;55.686;37.532;2023-12-20T22:47:47;97696.59;;;2.57;100.00
75312;BME280;63906;55.686;37.532;2023-12-20T22:52:47;97697.91;;;2.68;100.00
75312;BME280;63906;55.686;37.532;2023-12-20T22:57:48;97702.06;;;2.90;100.00
75312;BME280;63906;55.686;37.532;2023-12-20T23:02:48;97688.66;;;2.87;100.00
75312;BME280;63906;55.686;37.532;2023-12-20T23:07:49;97682.84;;;2.85;100.00
75312;BME280;63906;55.686;37.532;2023-12-20T23:12:50;97680.28;;;2.63;100.00
75312;BME280;63906;55.686;37.532;2023-12-20T23:17:50;97698.25;;;2.65;100.00
75312;BME280;63906;55.686;37.532;2023-12-20T23:22:53;97698.09;;;2.45;100.00
75312;BME280;63906;55.686;37.532;2023-12-20T23:27:54;97691.66;;;2.41;100.00
75312;BME280;63906;55.686;37.532;2023-12-20T23:32:55;97699.19;;;2.36;100.00
75312;BME280;63906;55.686;37.532;2023-12-20T23:37:56;97676.50;;;2.23;100.00
75312;BME280;63906;55.686;37.532;2023-12-20T23:42:56;97667.50;;;2.04;100.00
75312;BME280;63906;55.686;37.532;2023-12-20T23:47:56;97635.88;;;1.94;100.00
75312;BME280;63906;55.686;37.532;2023-12-20T23:52:57;97665.09;;;2.03;100.00
75312;BME280;63906;55.686;37.532;2023-12-20T23:57:57;97651.13;;;1.82;100.00
